Time;durP1;ratioP1;P1;durP2;ratioP2;P2;SDS_P1;SDS_P2;PMS_P1;PMS_P2;Temp;Humidity;BMP_temperature;BMP_pressure;BME280_temperature;BME280_humidity;BME280_pressure;Samples;Min_cycle;Max_cycle;Signal;HPM_P1;HPM_P2
2022/03/30 00:01:26;;;;;;;30.20;14.77;;;4.10;78.20;;;;;;5093216;28;20255;-66
2022/03/30 00:03:52;;;;;;;35.38;15.10;;;4.10;78.30;;;;;;5096154;28;20036;-66
2022/03/30 00:06:18;;;;;;;28.70;13.90;;;4.10;77.80;;;;;;5091925;28;20094;-66
2022/03/30 00:08:44;;;;;;;27.00;14.17;;;4.10;77.90;;;;;;5083574;28;20052;-66
2022/03/30 00:11:11;;;;;;;35.40;14.23;;;4.10;77.50;;;;;;5086260;28;20152;-66
2022/03/30 00:13:37;;;;;;;34.70;14.77;;;4.10;77.50;;;;;;5077784;28;20336;-66
2022/03/30 00:16:04;;;;;;;32.90;14.93;;;4.10;77.40;;;;;;5081404;28;20040;-66
2022/03/30 00:18:30;;;;;;;34.65;15.27;;;4.20;77.10;;;;;;5066010;28;20039;-66
2022/03/30 00:20:56;;;;;;;35.53;15.65;;;4.20;77.30;;;;;;5084501;28;20071;-66
2022/03/30 00:23:21;;;;;;;25.93;14.00;;;4.20;77.50;;;;;;5069641;28;21052;-66
2022/03/30 00:25:47;;;;;;;36.87;17.10;;;4.30;77.50;;;;;;5101615;28;20471;-66
2022/03/30 00:28:13;;;;;;;31.93;14.33;;;4.40;77.50;;;;;;5073280;28;20063;-66
2022/03/30 00:30:39;;;;;;;31.97;15.57;;;4.40;77.60;;;;;;5080408;28;20060;-66
2022/03/30 00:33:05;;;;;;;30.98;15.57;;;4.50;77.70;;;;;;5070949;28;20055;-66
2022/03/30 00:35:31;;;;;;;35.23;16.00;;;4.60;77.80;;;;;;5070422;28;20452;-66
2022/03/30 00:37:57;;;;;;;34.85;16.85;;;4.60;78.30;;;;;;5070266;28;20039;-66
2022/03/30 00:40:23;;;;;;;37.17;16.60;;;4.60;78.20;;;;;;5106429;27;20046;-66
2022/03/30 00:42:49;;;;;;;30.98;16.30;;;4.70;77.90;;;;;;5084262;28;20382;-66
2022/03/30 00:45:17;;;;;;;33.40;16.02;;;4.70;77.70;;;;;;5070253;28;20062;-66
2022/03/30 00:47:44;;;;;;;34.47;16.08;;;4.70;77.80;;;;;;5087099;28;20117;-66
2022/03/30 00:50:13;;;;;;;34.53;16.25;;;4.80;77.70;;;;;;5087617;28;20046;-66
2022/03/30 00:52:39;;;;;;;32.22;15.63;;;4.90;77.40;;;;;;5088759;28;20142;-66
2022/03/30 00:55:06;;;;;;;33.85;15.80;;;4.90;77.90;;;;;;5087849;28;20090;-66
2022/03/30 00:57:35;;;;;;;32.03;16.67;;;4.90;77.70;;;;;;5104348;28;20521;-66
2022/03/30 01:00:02;;;;;;;34.70;17.13;;;4.90;78.20;;;;;;5087376;28;20040;-66
2022/03/30 01:02:29;;;;;;;37.13;16.38;;;4.80;78.80;;;;;;5074262;28;20040;-66
2022/03/30 01:04:55;;;;;;;32.83;17.13;;;4.80;79.30;;;;;;5120570;27;20040;-66
2022/03/30 01:07:20;;;;;;;35.27;16.97;;;4.80;79.80;;;;;;5086486;28;20040;-66
2022/03/30 01:09:46;;;;;;;37.70;18.47;;;4.80;80.20;;;;;;5070304;28;20028;-66
2022/03/30 01:12:12;;;;;;;33.97;16.63;;;4.80;80.50;;;;;;5087397;28;20520;-67
2022/03/30 01:14:38;;;;;;;33.28;17.13;;;4.70;80.70;;;;;;5093614;28;20093;-66
2022/03/30 01:17:05;;;;;;;32.47;16.60;;;4.80;80.40;;;;;;5086753;28;20451;-66
2022/03/30 01:19:32;;;;;;;31.65;17.45;;;4.80;80.30;;;;;;5086973;28;20282;-66
2022/03/30 01:21:59;;;;;;;36.45;17.85;;;4.80;80.30;;;;;;5110389;27;20032;-66
2022/03/30 01:24:26;;;;;;;33.78;16.65;;;4.90;80.30;;;;;;5094926;28;20126;-66
2022/03/30 01:26:53;;;;;;;36.78;16.17;;;4.90;80.20;;;;;;5086638;28;20126;-66
2022/03/30 01:34:48;;;;;;;34.42;16.20;;;5.00;79.80;;;;;;5086709;28;20063;-66
2022/03/30 01:37:14;;;;;;;30.95;16.38;;;5.00;79.60;;;;;;5100627;27;20069;-66
2022/03/30 01:39:41;;;;;;;31.42;17.00;;;5.10;79.40;;;;;;5070283;28;20488;-66
2022/03/30 01:42:07;;;;;;;34.33;16.42;;;5.10;79.20;;;;;;5069481;28;20040;-66
2022/03/30 01:44:34;;;;;;;31.75;16.20;;;5.10;79.60;;;;;;5069492;28;20155;-66
2022/03/30 01:47:00;;;;;;;34.58;15.45;;;5.20;79.50;;;;;;5086759;28;20070;-66
2022/03/30 01:49:26;;;;;;;36.23;15.70;;;5.20;79.40;;;;;;5069618;28;20505;-66
2022/03/30 01:51:53;;;;;;;34.13;15.60;;;5.20;79.30;;;;;;5092429;28;20553;-66
2022/03/30 01:54:23;;;;;;;33.00;15.45;;;5.20;79.60;;;;;;5076298;28;20500;-67
2022/03/30 01:56:50;;;;;;;29.23;14.93;;;5.30;79.00;;;;;;5070750;28;20043;-66
2022/03/30 01:59:17;;;;;;;33.75;14.88;;;5.30;78.70;;;;;;5088748;28;20047;-66
2022/03/30 02:01:43;;;;;;;34.65;15.38;;;5.30;78.60;;;;;;5087792;28;20071;-66
2022/03/30 02:04:09;;;;;;;30.33;16.20;;;5.40;78.50;;;;;;5087486;28;20067;-66
2022/03/30 02:06:37;;;;;;;29.40;15.35;;;5.40;78.40;;;;;;5086063;28;20126;-66
2022/03/30 02:09:03;;;;;;;32.00;15.43;;;5.40;78.40;;;;;;5058739;28;20114;-66
2022/03/30 02:11:29;;;;;;;32.83;14.77;;;5.40;78.30;;;;;;5087231;28;20044;-66
2022/03/30 02:13:56;;;;;;;39.93;17.13;;;5.40;78.20;;;;;;5070045;28;20448;-66
2022/03/30 02:16:22;;;;;;;31.75;16.38;;;5.40;77.90;;;;;;5069560;28;20113;-66
2022/03/30 02:18:48;;;;;;;34.38;17.27;;;5.40;77.90;;;;;;5066368;28;20040;-66
2022/03/30 02:21:15;;;;;;;32.73;16.63;;;5.40;78.00;;;;;;5087230;28;20039;-66
2022/03/30 02:23:42;;;;;;;23.90;12.40;;;5.50;77.80;;;;;;5106243;27;20039;-66
2022/03/30 02:26:07;;;;;;;19.65;9.77;;;5.50;78.70;;;;;;5093252;28;20047;-66
2022/03/30 02:28:33;;;;;;;17.17;7.07;;;5.50;78.20;;;;;;5085401;28;20551;-66
2022/03/30 02:31:00;;;;;;;9.38;4.85;;;5.60;78.00;;;;;;5051522;28;20532;-66
2022/03/30 02:33:26;;;;;;;10.38;3.28;;;5.60;78.10;;;;;;5086290;28;20040;-66
2022/03/30 02:35:53;;;;;;;8.32;2.65;;;5.60;78.30;;;;;;5085853;28;20040;-66
2022/03/30 02:38:19;;;;;;;5.68;2.53;;;5.70;78.50;;;;;;5084252;28;20499;-66
2022/03/30 02:40:46;;;;;;;5.53;2.20;;;5.70;78.10;;;;;;5086117;28;20040;-66
2022/03/30 02:43:14;;;;;;;6.28;2.33;;;5.70;78.00;;;;;;5086390;28;20079;-66
2022/03/30 02:45:39;;;;;;;7.53;2.30;;;5.70;78.00;;;;;;5119525;27;20047;-66
2022/03/30 02:48:22;;;;;;;5.93;1.80;;;5.70;77.70;;;;;;5086180;28;20140;-66
2022/03/30 02:50:54;;;;;;;5.35;1.60;;;5.70;78.00;;;;;;5085685;28;20086;-66
2022/03/30 02:53:20;;;;;;;3.25;1.55;;;5.70;77.90;;;;;;5087910;28;20048;-66
2022/03/30 02:55:47;;;;;;;3.47;1.70;;;5.70;78.00;;;;;;5086706;28;20089;-66
2022/03/30 02:58:13;;;;;;;3.33;1.55;;;5.70;77.90;;;;;;5067480;28;20047;-66
2022/03/30 03:00:40;;;;;;;6.65;1.80;;;5.70;77.80;;;;;;5051576;28;20044;-66
2022/03/30 03:03:07;;;;;;;3.40;1.42;;;5.60;77.80;;;;;;5085790;28;20469;-66
2022/03/30 03:05:34;;;;;;;8.10;2.00;;;5.60;77.90;;;;;;5086051;28;20109;-66
2022/03/30 03:08:05;;;;;;;3.15;1.50;;;5.60;77.90;;;;;;5072733;28;20071;-66
2022/03/30 03:10:36;;;;;;;3.40;1.60;;;5.60;77.80;;;;;;5085140;28;20133;-66
2022/03/30 03:13:06;;;;;;;3.00;1.30;;;5.60;78.00;;;;;;5106642;27;20444;-66
2022/03/30 03:15:33;;;;;;;3.35;0.90;;;5.60;78.10;;;;;;5081392;28;20075;-66
2022/03/30 03:17:59;;;;;;;6.47;1.30;;;5.50;77.80;;;;;;5086062;28;20040;-66
2022/03/30 03:20:25;;;;;;;4.37;0.80;;;5.50;77.90;;;;;;5070007;28;20035;-66
2022/03/30 03:22:51;;;;;;;3.28;0.65;;;5.50;77.70;;;;;;5081636;28;20304;-66
2022/03/30 03:25:17;;;;;;;3.72;0.40;;;5.50;77.60;;;;;;5070546;28;20043;-66
2022/03/30 03:27:43;;;;;;;1.90;0.20;;;5.50;77.50;;;;;;5090594;28;20047;-66
2022/03/30 03:30:09;;;;;;;2.40;0.40;;;5.50;77.50;;;;;;5109658;27;20039;-66
2022/03/30 03:32:36;;;;;;;4.50;0.30;;;5.50;77.30;;;;;;5089258;28;20056;-66
2022/03/30 03:35:02;;;;;;;1.38;0.20;;;5.40;77.30;;;;;;5076000;28;20051;-66
2022/03/30 03:37:28;;;;;;;2.70;0.65;;;5.40;77.20;;;;;;5086176;28;20080;-66
2022/03/30 03:39:53;;;;;;;1.50;0.20;;;5.40;76.80;;;;;;5075241;28;20074;-66
2022/03/30 03:42:19;;;;;;;2.93;0.40;;;5.40;76.70;;;;;;5075487;28;20058;-66
2022/03/30 03:44:45;;;;;;;1.17;0.20;;;5.40;76.50;;;;;;5121412;28;20376;-66
2022/03/30 03:47:11;;;;;;;1.53;0.30;;;5.30;76.30;;;;;;5089026;28;20802;-66
2022/03/30 03:49:37;;;;;;;1.77;0.27;;;5.30;76.50;;;;;;5127030;27;20590;-66
2022/03/30 03:52:04;;;;;;;2.40;0.30;;;5.30;76.30;;;;;;5122642;27;20594;-66
2022/03/30 03:54:30;;;;;;;1.05;0.30;;;5.20;76.10;;;;;;5072985;28;20032;-66
2022/03/30 03:56:56;;;;;;;2.77;0.30;;;5.20;76.10;;;;;;5059545;28;20036;-66
2022/03/30 03:59:22;;;;;;;1.50;0.40;;;5.20;76.00;;;;;;5097828;28;20498;-66
2022/03/30 04:01:47;;;;;;;1.63;0.47;;;5.20;76.20;;;;;;5074422;28;20040;-66
2022/03/30 04:04:13;;;;;;;2.37;0.40;;;5.10;76.20;;;;;;5107207;27;20557;-66
2022/03/30 04:06:39;;;;;;;2.40;0.40;;;5.10;76.10;;;;;;5095295;28;20043;-66
2022/03/30 04:09:05;;;;;;;1.53;0.40;;;5.10;76.10;;;;;;5097472;28;20596;-66
2022/03/30 04:11:31;;;;;;;3.83;0.50;;;5.10;76.30;;;;;;5077405;28;20845;-66
2022/03/30 04:13:56;;;;;;;2.43;0.97;;;5.00;76.30;;;;;;5095465;28;20048;-66
2022/03/30 04:16:22;;;;;;;4.10;0.50;;;5.00;76.10;;;;;;5074331;28;20043;-66
2022/03/30 04:18:48;;;;;;;0.43;0.20;;;5.00;76.30;;;;;;5072528;28;20036;-66
2022/03/30 04:21:14;;;;;;;3.40;0.43;;;5.00;76.20;;;;;;5090066;28;20487;-66
2022/03/30 04:23:40;;;;;;;2.90;0.63;;;5.00;76.00;;;;;;5087956;28;20234;-66
2022/03/30 04:26:05;;;;;;;1.90;0.37;;;5.00;76.20;;;;;;5111358;27;20802;-67
2022/03/30 04:28:31;;;;;;;1.67;0.23;;;5.00;76.00;;;;;;5087415;28;20043;-66
2022/03/30 04:30:57;;;;;;;6.13;0.60;;;4.90;76.30;;;;;;5091678;28;20192;-66
2022/03/30 04:33:23;;;;;;;2.50;0.50;;;4.80;76.20;;;;;;5105112;28;20036;-66
2022/03/30 04:35:48;;;;;;;3.00;0.50;;;4.80;76.20;;;;;;5104368;27;20242;-66
2022/03/30 04:38:14;;;;;;;1.33;0.30;;;4.80;76.40;;;;;;5087142;28;20040;-66
2022/03/30 04:40:41;;;;;;;1.43;0.50;;;4.70;76.30;;;;;;5086704;28;20548;-66
2022/03/30 04:43:08;;;;;;;1.80;0.57;;;4.60;76.30;;;;;;5125187;27;20043;-66
2022/03/30 04:45:33;;;;;;;9.75;0.77;;;4.60;76.30;;;;;;5103832;28;20051;-66
2022/03/30 04:48:00;;;;;;;1.80;0.57;;;4.50;76.30;;;;;;5087500;28;20052;-66
2022/03/30 04:50:26;;;;;;;3.25;0.40;;;4.50;76.30;;;;;;5087273;28;20147;-66
2022/03/30 04:52:52;;;;;;;3.67;0.80;;;4.40;76.40;;;;;;5090058;28;20097;-66
2022/03/30 04:55:19;;;;;;;1.67;0.50;;;4.40;76.40;;;;;;5113151;27;20450;-66
2022/03/30 04:57:45;;;;;;;1.45;0.50;;;4.30;76.40;;;;;;5123875;27;20269;-66
2022/03/30 05:00:12;;;;;;;2.10;0.67;;;4.20;76.30;;;;;;5093602;28;20040;-66
2022/03/30 05:02:38;;;;;;;3.53;0.70;;;4.20;76.30;;;;;;5069727;28;20075;-66
2022/03/30 05:05:08;;;;;;;2.33;1.00;;;4.20;76.30;;;;;;5103223;28;20098;-66
2022/03/30 05:07:33;;;;;;;5.25;0.63;;;4.10;76.40;;;;;;5122906;27;20594;-66
2022/03/30 05:09:59;;;;;;;1.53;0.53;;;4.10;76.50;;;;;;5087394;28;20048;-66
2022/03/30 05:12:25;;;;;;;2.43;0.80;;;4.00;76.30;;;;;;5087477;28;20042;-66
2022/03/30 05:14:51;;;;;;;2.00;0.50;;;4.00;76.50;;;;;;5068056;28;20063;-66
2022/03/30 05:17:17;;;;;;;4.20;0.80;;;4.00;76.40;;;;;;5069225;28;20073;-66
2022/03/30 05:19:44;;;;;;;3.92;0.73;;;4.00;76.40;;;;;;5054171;28;20047;-66
2022/03/30 05:22:11;;;;;;;4.07;0.90;;;4.00;76.70;;;;;;5071338;28;20163;-66
2022/03/30 05:24:37;;;;;;;2.97;0.70;;;4.00;76.50;;;;;;5070350;28;20526;-66
2022/03/30 05:27:03;;;;;;;3.83;0.90;;;4.00;76.60;;;;;;5120087;27;20121;-66
2022/03/30 05:29:29;;;;;;;2.20;0.77;;;4.00;76.50;;;;;;5069911;28;20048;-66
2022/03/30 05:31:55;;;;;;;6.10;1.33;;;4.00;76.70;;;;;;5089398;28;20133;-66
2022/03/30 05:34:21;;;;;;;5.40;0.80;;;3.90;76.80;;;;;;5088376;28;20040;-66
2022/03/30 05:36:47;;;;;;;3.33;0.80;;;3.80;77.00;;;;;;5085926;28;20040;-68
2022/03/30 05:39:12;;;;;;;2.03;0.70;;;3.80;77.00;;;;;;5123078;27;20357;-68
2022/03/30 05:41:38;;;;;;;1.90;0.90;;;3.80;77.00;;;;;;5103476;28;20047;-68
2022/03/30 05:44:04;;;;;;;3.20;1.00;;;3.80;77.00;;;;;;5104287;27;20130;-68
2022/03/30 05:46:30;;;;;;;5.97;1.77;;;3.80;77.00;;;;;;5069945;28;20040;-68
2022/03/30 05:48:55;;;;;;;4.03;1.27;;;3.80;77.10;;;;;;5069218;28;20036;-68
2022/03/30 05:51:21;;;;;;;3.43;1.10;;;3.80;77.10;;;;;;5072495;28;20040;-68
2022/03/30 05:53:47;;;;;;;2.47;1.50;;;3.80;77.10;;;;;;5090934;28;20177;-68
2022/03/30 05:56:13;;;;;;;5.33;1.10;;;3.80;77.10;;;;;;5056595;28;20040;-68
2022/03/30 05:58:39;;;;;;;3.22;0.95;;;3.90;77.20;;;;;;5074837;28;20054;-68
2022/03/30 06:01:06;;;;;;;5.53;1.63;;;3.90;77.10;;;;;;5089930;28;20028;-68
2022/03/30 06:03:37;;;;;;;4.43;1.17;;;3.90;77.20;;;;;;5091664;28;20119;-69
2022/03/30 06:06:04;;;;;;;3.67;1.15;;;4.00;77.40;;;;;;5057000;28;20036;-68
2022/03/30 06:08:31;;;;;;;4.07;1.30;;;4.00;77.20;;;;;;5058626;28;20188;-68
2022/03/30 06:10:57;;;;;;;3.38;1.40;;;4.10;77.20;;;;;;5089395;28;20051;-68
2022/03/30 06:13:23;;;;;;;3.77;1.30;;;4.20;77.10;;;;;;5085400;28;20512;-68
2022/03/30 06:15:48;;;;;;;5.23;1.10;;;4.20;77.10;;;;;;5050869;28;20491;-68
2022/03/30 06:18:15;;;;;;;4.53;1.00;;;4.30;76.90;;;;;;5086260;28;20115;-69
2022/03/30 06:20:41;;;;;;;4.80;1.10;;;4.40;77.00;;;;;;5053053;28;20044;-69
2022/03/30 06:23:07;;;;;;;3.50;1.10;;;4.40;76.70;;;;;;5103610;28;20036;-69
2022/03/30 06:25:33;;;;;;;4.13;1.50;;;4.50;76.60;;;;;;5085321;28;20056;-69
2022/03/30 06:27:59;;;;;;;4.53;1.17;;;4.60;76.60;;;;;;5069521;28;20119;-68
2022/03/30 06:30:25;;;;;;;4.40;1.00;;;4.60;76.50;;;;;;5069876;28;20400;-68
2022/03/30 06:32:52;;;;;;;4.68;1.05;;;4.70;76.30;;;;;;5102683;28;20051;-68
2022/03/30 06:35:19;;;;;;;2.78;1.10;;;4.80;76.30;;;;;;5085483;28;20048;-68
2022/03/30 06:37:45;;;;;;;2.63;1.00;;;4.80;76.10;;;;;;5051522;28;20408;-68
2022/03/30 06:40:12;;;;;;;5.32;1.30;;;4.90;75.80;;;;;;5053966;28;20122;-68
2022/03/30 06:42:39;;;;;;;2.70;1.50;;;4.90;75.80;;;;;;5086470;28;20042;-69
2022/03/30 06:45:07;;;;;;;3.20;1.05;;;5.00;75.70;;;;;;5053862;28;20577;-69
2022/03/30 06:47:33;;;;;;;3.88;1.42;;;5.10;75.60;;;;;;5119561;27;20489;-69
2022/03/30 06:49:58;;;;;;;5.77;1.50;;;5.10;75.50;;;;;;5086670;28;20050;-69
2022/03/30 06:52:26;;;;;;;4.27;1.30;;;5.20;75.30;;;;;;5085788;28;20770;-69
2022/03/30 06:54:51;;;;;;;3.53;1.50;;;5.30;75.20;;;;;;5086824;28;20047;-69
2022/03/30 06:57:17;;;;;;;4.20;1.20;;;5.30;75.10;;;;;;5068775;28;20464;-68
2022/03/30 06:59:43;;;;;;;5.90;1.23;;;5.40;75.00;;;;;;5069668;28;20036;-69
2022/03/30 07:02:08;;;;;;;4.07;1.20;;;5.50;74.70;;;;;;5085545;28;20075;-69
2022/03/30 07:04:35;;;;;;;3.33;1.20;;;5.60;74.60;;;;;;5068225;28;20105;-69
2022/03/30 07:12:31;;;;;;;4.50;1.50;;;5.90;73.70;;;;;;5088014;28;20131;-69
2022/03/30 07:14:57;;;;;;;5.50;1.40;;;5.90;73.30;;;;;;5050397;28;20122;-69
2022/03/30 07:17:23;;;;;;;8.77;1.27;;;6.00;72.90;;;;;;5052556;28;20296;-69
2022/03/30 07:19:48;;;;;;;5.83;1.00;;;6.00;72.80;;;;;;5068046;28;20039;-69
2022/03/30 07:22:14;;;;;;;2.67;0.80;;;6.10;72.30;;;;;;5052236;28;20036;-69
2022/03/30 07:24:41;;;;;;;6.83;0.83;;;6.10;71.70;;;;;;5069948;28;20079;-69
2022/03/30 07:27:07;;;;;;;4.63;1.00;;;6.10;71.20;;;;;;5084998;28;20044;-69
2022/03/30 07:29:33;;;;;;;4.47;0.70;;;6.20;70.70;;;;;;5068423;28;20810;-69
2022/03/30 07:31:59;;;;;;;4.30;0.70;;;6.20;70.70;;;;;;5091185;28;20122;-69
2022/03/30 07:34:24;;;;;;;4.33;0.80;;;6.20;70.00;;;;;;5094051;28;20048;-69
2022/03/30 07:36:50;;;;;;;3.23;0.70;;;6.30;69.50;;;;;;5076963;28;20036;-69
2022/03/30 07:39:16;;;;;;;2.83;0.53;;;6.40;69.00;;;;;;5077165;28;20036;-69
2022/03/30 07:41:42;;;;;;;6.67;1.23;;;6.40;69.30;;;;;;5083034;28;20096;-69
2022/03/30 07:44:08;;;;;;;4.80;0.70;;;6.50;68.40;;;;;;5083250;28;20039;-69
2022/03/30 07:46:33;;;;;;;4.87;0.70;;;6.50;67.80;;;;;;5104250;28;20074;-69
2022/03/30 07:48:59;;;;;;;3.57;0.60;;;6.60;67.90;;;;;;5086953;28;20131;-69
2022/03/30 07:51:25;;;;;;;5.53;0.88;;;6.60;67.50;;;;;;5087699;28;20097;-69
2022/03/30 07:53:51;;;;;;;6.37;1.03;;;6.70;67.10;;;;;;5063047;28;20036;-69
2022/03/30 07:56:17;;;;;;;4.80;0.60;;;6.80;67.50;;;;;;5104975;28;20075;-69
2022/03/30 07:58:43;;;;;;;4.83;0.90;;;6.90;67.30;;;;;;5103462;28;20578;-69
2022/03/30 08:01:08;;;;;;;3.53;0.50;;;7.00;66.50;;;;;;5085361;28;20035;-69
2022/03/30 08:03:34;;;;;;;4.13;0.60;;;7.10;66.60;;;;;;5080323;28;20407;-69
2022/03/30 08:06:00;;;;;;;4.23;0.60;;;7.20;65.70;;;;;;5080949;28;20047;-69
2022/03/30 08:08:27;;;;;;;3.63;0.52;;;7.30;64.70;;;;;;5085177;28;20054;-69
2022/03/30 08:10:53;;;;;;;5.90;0.88;;;7.40;64.00;;;;;;5104964;28;20043;-69
2022/03/30 08:13:19;;;;;;;5.70;0.40;;;7.40;63.90;;;;;;5103234;28;20075;-69
2022/03/30 08:15:45;;;;;;;4.97;0.70;;;7.50;64.10;;;;;;5093672;28;20197;-69
2022/03/30 08:18:11;;;;;;;4.47;0.63;;;7.50;64.40;;;;;;5078151;28;20447;-69
2022/03/30 08:23:21;;;;;;;2.95;0.40;;;7.70;63.00;;;;;;5091447;28;20427;-69
2022/03/30 08:25:47;;;;;;;3.67;0.50;;;7.80;63.00;;;;;;5060693;28;20039;-69
2022/03/30 08:28:13;;;;;;;4.37;0.50;;;7.80;62.20;;;;;;5087744;28;20040;-69
2022/03/30 08:30:39;;;;;;;3.30;0.60;;;7.80;60.80;;;;;;5058729;28;20169;-69
2022/03/30 08:33:05;;;;;;;8.13;0.70;;;7.80;61.60;;;;;;5067722;28;20198;-69
2022/03/30 08:35:32;;;;;;;5.73;0.47;;;7.80;62.20;;;;;;5067319;28;20114;-69
2022/03/30 08:37:58;;;;;;;6.25;0.68;;;7.90;61.20;;;;;;5066993;28;20067;-69
2022/03/30 08:40:24;;;;;;;7.65;0.98;;;8.00;60.80;;;;;;5088184;28;20028;-69
2022/03/30 08:42:52;;;;;;;3.42;0.40;;;8.20;60.30;;;;;;5055626;28;20032;-69
2022/03/30 08:45:19;;;;;;;2.65;0.60;;;8.20;60.00;;;;;;5089040;28;20551;-69
2022/03/30 08:47:46;;;;;;;3.20;0.52;;;8.20;59.90;;;;;;5071695;28;20069;-69
2022/03/30 08:50:12;;;;;;;3.20;0.40;;;8.30;60.60;;;;;;5089904;28;20575;-69
2022/03/30 08:52:38;;;;;;;4.60;0.47;;;8.40;60.70;;;;;;5071760;28;20127;-69
2022/03/30 08:55:04;;;;;;;4.20;0.47;;;8.40;60.50;;;;;;5089373;28;20515;-69
2022/03/30 08:57:30;;;;;;;7.95;1.75;;;8.50;60.20;;;;;;5117919;27;20036;-69
2022/03/30 09:00:17;;;;;;;7.20;0.90;;;8.50;59.90;;;;;;5055938;28;20047;-69
2022/03/30 09:02:55;;;;;;;4.43;0.50;;;8.50;59.90;;;;;;5121594;27;20031;-69
2022/03/30 09:05:26;;;;;;;4.10;0.70;;;8.40;59.80;;;;;;5121826;27;20036;-69
2022/03/30 09:07:54;;;;;;;4.20;1.02;;;8.50;60.30;;;;;;5071684;28;20400;-69
2022/03/30 09:10:32;;;;;;;4.47;0.68;;;8.60;60.40;;;;;;5072525;28;20565;-69
2022/03/30 09:12:58;;;;;;;3.50;0.55;;;8.60;60.50;;;;;;5069522;28;20039;-69
2022/03/30 09:15:26;;;;;;;4.53;0.38;;;8.60;60.10;;;;;;5120238;27;20316;-69
2022/03/30 09:18:18;;;;;;;4.32;0.80;;;8.70;60.20;;;;;;5070251;28;20127;-69
2022/03/30 09:20:51;;;;;;;4.38;1.02;;;8.60;60.00;;;;;;5069202;28;20094;-69
2022/03/30 09:23:17;;;;;;;4.38;0.82;;;8.60;60.10;;;;;;5116764;27;20048;-69
2022/03/30 09:25:45;;;;;;;2.73;0.67;;;8.50;59.70;;;;;;5087328;28;20089;-69
2022/03/30 09:28:11;;;;;;;6.07;0.70;;;8.50;60.10;;;;;;5069821;28;20078;-69
2022/03/30 09:30:37;;;;;;;3.13;0.50;;;8.50;59.90;;;;;;5104368;28;20039;-69
2022/03/30 09:33:07;;;;;;;3.58;0.60;;;8.50;59.50;;;;;;5077896;28;20091;-69
2022/03/30 09:35:38;;;;;;;5.10;0.40;;;8.50;59.30;;;;;;5093474;28;20123;-69
2022/03/30 09:38:12;;;;;;;3.83;0.30;;;8.40;58.40;;;;;;5074702;28;20040;-69
2022/03/30 09:40:43;;;;;;;2.53;0.38;;;8.30;57.60;;;;;;5098356;28;20452;-69
2022/03/30 09:43:22;;;;;;;7.28;0.70;;;8.20;57.70;;;;;;5096428;28;20231;-69
2022/03/30 09:46:13;;;;;;;3.33;0.40;;;8.10;58.10;;;;;;5105048;28;20052;-69
2022/03/30 09:48:49;;;;;;;5.22;0.60;;;8.10;58.40;;;;;;5087214;28;20131;-69
2022/03/30 09:51:20;;;;;;;5.93;0.63;;;8.10;57.90;;;;;;5087668;28;20402;-69
2022/03/30 09:53:47;;;;;;;4.32;0.70;;;8.10;57.90;;;;;;5099100;28;20067;-69
2022/03/30 09:56:18;;;;;;;3.08;0.57;;;8.20;57.90;;;;;;5082130;28;20123;-69
2022/03/30 09:58:44;;;;;;;3.03;0.50;;;8.20;57.60;;;;;;5103221;28;20331;-69
2022/03/30 10:01:20;;;;;;;4.25;0.50;;;8.30;57.90;;;;;;5085633;28;20044;-69
2022/03/30 10:03:55;;;;;;;5.55;0.50;;;8.50;57.60;;;;;;5096457;28;20054;-69
2022/03/30 10:06:29;;;;;;;3.10;0.28;;;8.70;57.30;;;;;;5104837;28;20043;-69
2022/03/30 10:08:56;;;;;;;3.50;0.65;;;8.90;56.80;;;;;;5102788;28;20065;-69
2022/03/30 10:11:23;;;;;;;1.58;0.40;;;9.10;56.60;;;;;;5102578;28;20481;-69
2022/03/30 10:13:51;;;;;;;4.07;0.73;;;9.30;55.70;;;;;;5094740;28;20315;-69
2022/03/30 10:16:18;;;;;;;4.00;0.40;;;9.40;55.00;;;;;;5078310;28;20094;-69
2022/03/30 10:18:45;;;;;;;4.25;0.30;;;9.40;54.50;;;;;;5098843;28;20038;-69
2022/03/30 10:21:19;;;;;;;4.63;0.55;;;9.50;53.50;;;;;;5080890;28;20040;-69
2022/03/30 10:24:15;;;;;;;1.23;0.52;;;9.50;52.90;;;;;;5077479;28;20093;-70
2022/03/30 10:26:49;;;;;;;2.70;0.68;;;9.40;53.10;;;;;;5084552;28;20082;-70
2022/03/30 10:29:16;;;;;;;4.28;1.10;;;9.60;53.20;;;;;;5081862;28;20044;-70
2022/03/30 10:31:42;;;;;;;6.25;1.20;;;9.70;52.70;;;;;;5099476;28;20559;-70
2022/03/30 10:34:25;;;;;;;5.03;1.27;;;9.90;52.70;;;;;;5087500;28;20051;-69
2022/03/30 10:37:00;;;;;;;5.03;1.63;;;10.10;52.80;;;;;;5091322;28;20042;-69
2022/03/30 10:39:27;;;;;;;6.15;1.85;;;10.20;52.60;;;;;;5104204;28;20051;-69
2022/03/30 10:42:06;;;;;;;6.32;2.10;;;10.40;52.00;;;;;;5076227;28;20500;-69
2022/03/30 10:44:36;;;;;;;4.82;1.40;;;10.40;50.10;;;;;;5093027;28;20060;-70
2022/03/30 10:47:08;;;;;;;5.03;1.40;;;10.40;50.80;;;;;;5092637;28;20396;-70
2022/03/30 10:49:38;;;;;;;6.13;1.45;;;10.40;49.50;;;;;;5091432;28;20051;-70
2022/03/30 10:52:33;;;;;;;4.13;1.02;;;10.30;49.30;;;;;;5103899;28;20055;-70
2022/03/30 10:55:14;;;;;;;4.82;1.00;;;10.20;49.50;;;;;;5072363;28;20572;-70
2022/03/30 10:57:46;;;;;;;3.33;1.15;;;10.20;48.90;;;;;;5084223;28;20082;-70
2022/03/30 11:00:20;;;;;;;5.00;0.90;;;10.20;49.70;;;;;;5103169;28;20492;-70
2022/03/30 11:02:46;;;;;;;4.07;0.80;;;10.20;49.60;;;;;;5076795;28;20052;-70
2022/03/30 11:05:13;;;;;;;3.95;0.65;;;10.20;49.90;;;;;;5101943;28;20169;-70
2022/03/30 11:07:39;;;;;;;2.63;0.60;;;10.40;49.00;;;;;;5079589;28;20435;-70
2022/03/30 11:10:16;;;;;;;4.35;0.80;;;10.60;49.20;;;;;;5069745;28;20408;-70
2022/03/30 11:13:03;;;;;;;2.92;0.65;;;10.90;47.40;;;;;;5103662;28;20048;-70
2022/03/30 11:15:31;;;;;;;4.88;0.70;;;11.00;47.00;;;;;;5093038;28;20047;-70
2022/03/30 11:18:18;;;;;;;4.93;0.45;;;10.90;47.00;;;;;;5077258;28;20181;-70
2022/03/30 11:21:08;;;;;;;2.38;0.50;;;10.90;46.80;;;;;;5077705;28;20047;-70
2022/03/30 11:23:36;;;;;;;1.40;0.30;;;10.80;46.30;;;;;;5094427;28;20120;-70
2022/03/30 11:26:02;;;;;;;4.07;0.30;;;10.80;47.20;;;;;;5070249;28;20138;-70
2022/03/30 11:28:35;;;;;;;3.70;0.43;;;10.90;47.30;;;;;;5069309;28;20122;-70
2022/03/30 11:31:06;;;;;;;3.92;0.43;;;11.10;46.60;;;;;;5093715;28;20047;-70
2022/03/30 11:33:34;;;;;;;3.28;0.38;;;11.30;47.60;;;;;;5098084;28;20104;-70
2022/03/30 11:36:03;;;;;;;1.88;0.40;;;11.50;46.20;;;;;;5097941;28;20103;-70
2022/03/30 11:38:40;;;;;;;1.93;0.40;;;11.60;45.30;;;;;;5122821;27;20505;-70
2022/03/30 11:41:10;;;;;;;2.47;0.27;;;11.70;45.10;;;;;;5096553;28;20282;-70
2022/03/30 11:46:30;;;;;;;4.00;0.60;;;11.50;44.40;;;;;;5098693;28;20096;-70
2022/03/30 11:49:06;;;;;;;1.60;0.30;;;11.20;45.20;;;;;;5099365;28;20338;-70
2022/03/30 11:51:33;;;;;;;1.60;0.30;;;11.10;44.20;;;;;;5084435;28;20083;-70
2022/03/30 11:54:19;;;;;;;2.40;0.30;;;10.90;45.00;;;;;;5089163;28;20309;-70
2022/03/30 11:56:46;;;;;;;4.47;0.40;;;11.00;44.40;;;;;;5099790;28;20101;-70
2022/03/30 11:59:12;;;;;;;2.90;0.70;;;11.10;45.20;;;;;;5088446;28;20293;-70
2022/03/30 12:01:37;;;;;;;5.33;2.13;;;11.20;45.80;;;;;;5058942;28;20043;-70
2022/03/30 12:04:04;;;;;;;8.27;2.80;;;11.40;46.10;;;;;;5105140;28;20144;-70
2022/03/30 12:06:30;;;;;;;4.50;1.50;;;11.50;45.00;;;;;;5089322;28;20155;-70
2022/03/30 12:09:00;;;;;;;3.88;0.77;;;11.60;44.70;;;;;;5122540;27;20285;-70
2022/03/30 12:11:29;;;;;;;4.77;1.30;;;11.60;44.10;;;;;;5088341;28;20050;-70
2022/03/30 12:13:57;;;;;;;4.90;1.53;;;11.50;43.80;;;;;;5107873;27;20307;-70
2022/03/30 12:16:26;;;;;;;4.82;1.30;;;11.30;44.60;;;;;;5109328;27;20348;-70
2022/03/30 12:18:55;;;;;;;4.55;1.15;;;11.20;45.30;;;;;;5127058;27;20039;-70
2022/03/30 12:21:26;;;;;;;4.20;0.60;;;11.10;45.40;;;;;;5127231;27;20046;-70
2022/03/30 12:23:58;;;;;;;4.28;0.52;;;11.00;45.40;;;;;;5102187;28;20287;-70
2022/03/30 12:26:24;;;;;;;4.80;0.50;;;10.90;45.60;;;;;;5108232;28;20105;-70
2022/03/30 12:29:00;;;;;;;1.67;0.50;;;10.80;45.80;;;;;;5108733;28;20281;-70
2022/03/30 12:31:26;;;;;;;3.53;0.50;;;10.80;45.70;;;;;;5100631;27;20288;-70
2022/03/30 12:33:52;;;;;;;3.30;0.50;;;10.80;46.50;;;;;;5106513;27;20040;-70
2022/03/30 12:36:20;;;;;;;2.43;0.43;;;10.80;45.90;;;;;;5089922;28;20061;-70
2022/03/30 12:38:49;;;;;;;3.40;0.30;;;10.70;46.20;;;;;;5097155;28;20036;-70
2022/03/30 12:41:26;;;;;;;5.20;0.50;;;10.70;46.30;;;;;;5116964;27;20431;-69
2022/03/30 12:44:00;;;;;;;5.03;0.30;;;10.70;46.10;;;;;;5087990;28;20438;-69
2022/03/30 12:46:32;;;;;;;2.55;0.30;;;10.70;46.20;;;;;;5082067;28;20048;-69
2022/03/30 12:49:06;;;;;;;5.97;0.60;;;10.50;46.40;;;;;;5105471;28;20039;-69
2022/03/30 12:51:36;;;;;;;4.90;0.65;;;10.50;46.00;;;;;;5087823;28;20277;-69
2022/03/30 12:54:04;;;;;;;4.00;0.35;;;10.50;46.30;;;;;;5065594;28;20037;-69
2022/03/30 12:56:31;;;;;;;4.85;0.40;;;10.40;45.90;;;;;;5079225;28;20044;-69
2022/03/30 12:59:04;;;;;;;3.50;0.40;;;10.40;46.30;;;;;;5089976;28;20402;-69
2022/03/30 13:01:37;;;;;;;3.30;0.57;;;10.40;46.10;;;;;;5088886;28;20350;-69
2022/03/30 13:04:24;;;;;;;6.22;0.70;;;10.30;46.00;;;;;;5095878;28;20096;-69
2022/03/30 13:07:11;;;;;;;5.03;0.90;;;10.20;46.60;;;;;;5095345;28;20156;-69
2022/03/30 13:09:38;;;;;;;3.20;0.70;;;10.30;46.90;;;;;;5095507;28;20044;-69
2022/03/30 13:12:06;;;;;;;5.60;0.63;;;10.40;46.40;;;;;;5107551;28;20046;-69